Stations météo

réclame
Mon MeteoGroup
Punta Galea Golf, Espagne (8059): Température de l'air & dewpoint: 08.08.2018 19:00:00 - 14.08.2018 19:00:00 (CEST)Punta Galea Golf, Espagne (8059): Vitesse du vent & gusts: 08.08.2018 19:00:00 - 14.08.2018 19:00:00 (CEST)Punta Galea Golf, Espagne (8059): Direction du vent: 08.08.2018 19:00:00 - 14.08.2018 19:00:00 (CEST)Punta Galea Golf, Espagne (8059): reduced air pressure: 08.08.2018 19:00:00 - 14.08.2018 19:00:00 (CEST)Punta Galea Golf, Espagne (8059): Quantités de précipitations: 08.08.2018 19:00:00 - 14.08.2018 19:00:00 (CEST)
Date & Time tt [°C] td [°C] ff [km/h] ff [knt] fx [km/h] fx [knt] dd ppp [hPa] rr [mm]
14.08.2018 19:00:00 - - - - - - - - -
14.08.2018 18:00:00 23,0 16,6 8 4 18 10 N 1023,8 0,0
14.08.2018 17:00:00 23,0 15,8 10 5 19 11 NNE 1023,8 0,0
14.08.2018 16:00:00 23,3 17,1 9 5 19 10 N 1023,6 0,0
14.08.2018 15:00:00 22,8 17,1 9 5 17 9 NNW 1023,9 0,0
14.08.2018 14:00:00 22,7 17,6 7 4 17 9 NNW 1023,8 -
14.08.2018 13:00:00 21,4 17,6 8 4 17 9 NNW 1023,7 0,0
14.08.2018 12:00:00 20,2 17,9 9 5 19 11 WNW 1023,7 0,0
14.08.2018 11:00:00 20,3 18,2 9 5 19 10 WNW 1023,3 0,0
14.08.2018 10:00:00 19,5 17,6 11 6 21 11 WNW 1022,9 0,0
14.08.2018 09:00:00 19,5 17,6 13 7 20 11 WNW 1022,2 0,0
14.08.2018 08:00:00 19,2 17,7 11 6 19 10 WNW 1021,9 -
14.08.2018 07:00:00 19,2 17,7 7 4 16 8 WNW 1021,4 0,0
14.08.2018 06:00:00 19,3 17,9 9 5 24 13 WNW 1020,9 0,0
14.08.2018 05:00:00 19,5 16,3 10 5 22 12 NW 1021,0 0,0
14.08.2018 04:00:00 19,4 17,5 13 7 21 11 WNW 1020,9 0,1
14.08.2018 03:00:00 19,5 17,9 10 6 23 13 WNW 1020,6 0,0
14.08.2018 02:00:00 19,2 18,0 12 7 25 14 WNW 1020,8 -
14.08.2018 01:00:00 19,2 18,2 10 6 21 11 WNW 1020,7 0,5
14.08.2018 00:00:00 19,6 18,1 8 4 24 13 WNW 1020,5 0,0
13.08.2018 23:00:00 19,4 18,4 12 6 34 18 WNW 1020,3 0,0
13.08.2018 22:00:00 19,4 18,1 13 7 33 18 WNW 1019,7 0,0
13.08.2018 21:00:00 19,1 18,1 13 7 30 16 NW 1019,2 0,2
13.08.2018 20:00:00 19,2 18,2 14 8 37 20 WNW 1019,0 -
13.08.2018 19:00:00 20,6 18,0 17 9 36 19 WNW 1018,7 0,0
13.08.2018 18:00:00 22,0 18,8 15 8 30 16 NW 1018,4 0,0
13.08.2018 17:00:00 21,7 18,5 17 9 35 19 NW 1018,5 0,0
13.08.2018 16:00:00 22,0 18,2 17 9 33 18 NW 1018,2 0,0
13.08.2018 15:00:00 21,0 17,2 18 10 31 17 WNW 1018,0 0,0
13.08.2018 14:00:00 21,9 18,3 11 6 20 11 WNW 1018,2 -
13.08.2018 13:00:00 20,6 17,4 12 7 29 15 WNW 1018,3 0,0
13.08.2018 12:00:00 20,1 17,5 13 7 26 14 NW 1018,0 0,0
13.08.2018 11:00:00 19,7 17,5 13 7 25 13 WNW 1017,7 0,0
13.08.2018 10:00:00 19,3 17,9 9 5 26 14 WNW 1017,3 0,0
13.08.2018 09:00:00 18,7 17,9 17 9 31 17 WNW 1017,2 0,0
13.08.2018 08:00:00 18,5 17,9 11 6 23 12 WNW 1016,6 -
13.08.2018 07:00:00 18,3 17,9 13 7 27 15 WNW 1016,2 0,1
13.08.2018 06:00:00 18,0 17,5 16 8 28 15 WNW 1015,9 1,1
13.08.2018 05:00:00 18,9 18,2 11 6 20 11 NW 1015,9 0,1
13.08.2018 04:00:00 19,4 18,8 5 3 18 10 WNW 1016,2 0,0
13.08.2018 03:00:00 19,4 18,6 11 6 24 13 NW 1016,0 0,0
13.08.2018 02:00:00 19,9 19,1 14 7 25 13 WNW 1016,2 -
13.08.2018 01:00:00 20,4 18,7 4 2 8 5 SSE 1016,2 0,0
13.08.2018 00:00:00 20,1 18,6 7 4 10 5 SSE 1016,2 0,0
12.08.2018 23:00:00 20,6 18,9 4 2 8 4 SSE 1016,6 0,0
12.08.2018 22:00:00 21,1 19,2 0 0 9 5 N 1016,5 0,0
12.08.2018 21:00:00 21,8 19,1 4 2 15 8 NNW 1015,7 0,0
12.08.2018 20:00:00 23,1 19,3 6 3 14 8 NNW 1015,5 -
12.08.2018 19:00:00 22,7 18,2 7 4 27 14 NW 1015,5 0,0
12.08.2018 18:00:00 23,1 17,3 11 6 24 13 NW 1015,3 0,0
12.08.2018 17:00:00 22,5 18,5 13 7 24 13 NW 1015,5 0,0
12.08.2018 16:00:00 22,5 19,5 14 7 27 15 NW 1015,4 0,0
12.08.2018 15:00:00 23,0 19,8 10 5 28 15 NW 1015,6 0,0
12.08.2018 14:00:00 23,3 20,3 9 5 18 10 NW 1015,9 -
12.08.2018 13:00:00 23,2 20,1 9 5 16 9 NNW 1016,1 0,0
12.08.2018 12:00:00 22,8 19,2 8 4 14 7 NNW 1016,0 0,0
12.08.2018 11:00:00 21,9 19,8 5 3 11 6 N 1016,2 0,0
12.08.2018 10:00:00 21,5 19,1 4 2 13 7 NNW 1016,2 0,0
12.08.2018 09:00:00 19,9 19,1 7 4 13 7 SSE 1015,9 0,0
12.08.2018 08:00:00 18,2 17,5 9 5 14 7 S 1016,3 -
12.08.2018 07:00:00 17,8 17,1 8 4 12 6 S 1016,1 0,0
12.08.2018 06:00:00 17,7 17,1 7 4 11 6 S 1016,2 0,0
12.08.2018 05:00:00 18,1 17,5 7 4 11 6 S 1016,8 0,0
12.08.2018 04:00:00 18,4 17,8 6 3 9 5 S 1017,5 0,0
12.08.2018 03:00:00 18,6 17,9 6 3 9 5 SSE 1018,2 0,0
12.08.2018 02:00:00 19,1 18,3 6 4 9 5 SSE 1018,7 -
12.08.2018 01:00:00 19,7 18,7 2 1 4 2 WSW 1019,4 0,0
12.08.2018 00:00:00 20,4 19,2 2 1 9 5 WSW 1020,0 0,0
11.08.2018 23:00:00 20,9 19,6 6 3 18 10 WNW 1020,3 0,0
11.08.2018 22:00:00 21,1 19,8 12 6 19 10 WNW 1020,1 0,0
11.08.2018 21:00:00 22,0 19,9 8 5 16 8 W 1019,5 0,0
11.08.2018 20:00:00 23,5 19,4 8 5 15 8 WNW 1019,3 -
11.08.2018 19:00:00 23,3 18,8 11 6 16 9 W 1019,4 0,0
11.08.2018 18:00:00 24,4 18,5 5 3 13 7 N 1019,5 0,0
11.08.2018 17:00:00 24,8 19,6 8 5 21 11 NE 1020,3 0,0
11.08.2018 16:00:00 23,2 18,9 15 8 22 12 NE 1020,9 0,0
11.08.2018 15:00:00 23,0 19,0 15 8 24 13 NE 1021,8 0,0
11.08.2018 14:00:00 22,9 18,6 15 8 24 13 NE 1022,3 -
11.08.2018 13:00:00 22,7 18,2 14 8 24 13 NE 1022,9 0,0
11.08.2018 12:00:00 22,1 17,5 8 5 13 7 N 1023,7 0,0
11.08.2018 11:00:00 21,9 16,6 5 3 13 7 SE 1024,0 0,0
11.08.2018 10:00:00 20,5 16,9 7 4 11 6 SE 1024,5 0,0
11.08.2018 09:00:00 18,2 16,6 6 4 13 7 S 1024,8 0,0
11.08.2018 08:00:00 16,3 15,5 6 4 10 5 S 1025,1 -
11.08.2018 07:00:00 15,8 15,0 7 4 11 6 S 1024,9 0,0
11.08.2018 06:00:00 15,5 14,7 7 4 10 5 S 1024,8 0,0
11.08.2018 05:00:00 15,5 14,7 6 3 19 10 SSE 1025,2 0,0
11.08.2018 04:00:00 15,4 14,6 6 3 9 5 SSE 1025,6 0,0
11.08.2018 03:00:00 15,8 14,7 6 3 10 5 S 1026,1 0,0
11.08.2018 02:00:00 16,3 15,0 7 4 19 10 SSE 1026,5 -
11.08.2018 01:00:00 16,9 15,1 3 2 5 3 SSE 1026,8 0,0
11.08.2018 00:00:00 17,4 15,1 2 1 6 3 S 1026,6 0,0
10.08.2018 23:00:00 17,8 14,9 3 2 7 4 SSE 1026,7 0,0
10.08.2018 22:00:00 18,7 15,0 6 3 13 7 E 1026,1 0,0
10.08.2018 21:00:00 19,8 14,6 8 4 19 11 E 1025,6 0,0
10.08.2018 20:00:00 21,2 14,6 11 6 22 12 ENE 1025,3 -
10.08.2018 19:00:00 21,9 14,0 13 7 23 12 ENE 1025,3 0,0
10.08.2018 18:00:00 22,3 14,7 13 7 26 14 ENE 1025,2 0,0
10.08.2018 17:00:00 22,9 15,4 15 8 29 16 ENE 1024,9 0,0
10.08.2018 16:00:00 22,6 15,0 16 9 31 17 NE 1025,0 0,0
10.08.2018 15:00:00 22,2 15,8 18 10 29 16 NE 1025,3 0,0
10.08.2018 14:00:00 22,2 15,5 15 8 22 12 NE 1025,3 -
10.08.2018 13:00:00 20,9 15,7 6 3 14 8 N 1025,8 0,0
10.08.2018 12:00:00 20,7 14,8 4 2 10 6 N 1026,2 0,0
10.08.2018 11:00:00 20,6 14,7 3 2 11 6 E 1026,4 0,0
10.08.2018 10:00:00 19,1 15,8 7 4 13 7 SSE 1026,6 0,0
10.08.2018 09:00:00 15,9 14,8 8 4 13 7 SSE 1026,8 0,0
10.08.2018 08:00:00 15,4 14,4 8 4 13 7 SSE 1026,5 -
10.08.2018 07:00:00 14,9 13,9 8 4 12 7 SSE 1026,1 0,0
10.08.2018 06:00:00 15,2 14,2 8 4 12 6 SSE 1026,0 0,0
10.08.2018 05:00:00 15,3 14,3 8 5 12 7 S 1025,9 0,0
10.08.2018 04:00:00 15,3 14,3 7 4 12 6 SSE 1025,9 0,0
10.08.2018 03:00:00 15,3 14,1 8 4 11 6 S 1026,3 0,0
10.08.2018 02:00:00 15,7 14,4 6 4 13 7 S 1026,5 -
10.08.2018 01:00:00 17,1 14,5 3 2 14 7 W 1026,4 0,0
10.08.2018 00:00:00 17,5 14,6 5 3 13 7 W 1026,3 0,0
09.08.2018 23:00:00 17,9 15,2 6 3 16 9 W 1026,1 0,0
09.08.2018 22:00:00 17,9 15,2 10 6 21 12 WNW 1025,8 0,0
09.08.2018 21:00:00 18,5 14,1 10 6 27 15 WNW 1024,9 0,0
09.08.2018 20:00:00 19,7 14,0 14 7 32 17 WNW 1024,5 -
09.08.2018 19:00:00 19,7 14,0 11 6 31 17 NW 1024,1 0,0
09.08.2018 18:00:00 20,1 16,0 16 9 28 15 WNW 1023,9 0,0
09.08.2018 17:00:00 19,9 16,1 12 6 36 19 NW 1023,6 0,7
09.08.2018 16:00:00 19,0 15,4 15 8 29 15 NW 1023,5 0,0
09.08.2018 15:00:00 19,1 15,5 14 8 32 17 NW 1023,3 0,0
09.08.2018 14:00:00 19,2 15,7 18 10 39 21 WNW 1022,6 -
09.08.2018 13:00:00 20,9 15,9 18 10 34 18 WNW 1022,2 0,0
09.08.2018 12:00:00 18,7 15,2 12 6 29 15 WNW 1021,6 0,0
09.08.2018 11:00:00 18,6 15,4 7 4 22 12 W 1020,6 0,0
09.08.2018 10:00:00 16,7 15,5 6 4 23 12 WSW 1020,3 0,0
09.08.2018 09:00:00 16,6 15,3 14 8 32 17 W 1019,7 0,0
09.08.2018 08:00:00 17,2 14,1 15 8 29 16 W 1018,9 -
09.08.2018 07:00:00 16,7 14,9 13 7 36 19 WNW 1017,9 0,0
09.08.2018 06:00:00 17,3 14,9 13 7 32 17 WNW 1017,1 0,0
09.08.2018 05:00:00 17,3 15,1 15 8 33 18 WNW 1016,8 0,0
09.08.2018 04:00:00 17,1 15,3 16 8 46 25 W 1016,4 0,0
09.08.2018 03:00:00 17,1 15,8 26 14 64 34 WNW 1015,9 0,0
09.08.2018 02:00:00 17,1 15,6 29 16 64 34 WNW 1014,9 -
09.08.2018 01:00:00 20,1 19,3 9 5 21 11 NW 1013,9 0,0
09.08.2018 00:00:00 20,4 19,1 2 1 13 7 SE 1013,5 0,0
08.08.2018 23:00:00 21,5 19,1 3 2 15 8 N 1013,7 0,0
08.08.2018 22:00:00 21,2 19,0 5 3 16 8 NNW 1013,4 0,0
08.08.2018 21:00:00 21,2 18,5 9 5 16 9 NE 1012,7 0,0
08.08.2018 20:00:00 21,8 18,4 11 6 22 12 NNE 1012,9 -
08.08.2018 19:00:00 22,3 18,7 14 8 25 14 NNE 1012,7 0,0

tt = Température de l'air
td = dewpoint
ff = Vitesse du vent
fx = gusts
dd = Direction du vent
ppp = reduced air pressure
rr = Quantités de précipitations

stations d'obs. à proximité